EPBC weather

Babice Airport
Masovia, Poland

Public forecast

Using degrees Celsius for public forecast. Weather courtesy of forecast.io.

METAR (pilot weather report)

Closest report is Warsaw Chopin Airport, 6.5 nm (12.1 km) SSE. Retrieved 2019/05/23 11:30 UTC (0 seconds ago):

EPWA 231130Z 26006KT 230V290 9999 VCTS SCT030CB 19/15 Q1011 TEMPO TSRA

TAF (pilot weather forecast)

Closest forecast is Warsaw Chopin Airport, 6.5 nm (12.1 km) SSE. Retrieved 2019/05/23 09:38 UTC (2 hours ago):

TAF EPWA 230830Z 2309/2409 32010KT 9999 SCT040 TEMPO 2309/2322 -SHRA BKN025CB PROB40 TEMPO 2311/2319 VRB18G30KT 2000 TSRA BKN014CB BECMG 2321/2323 BKN011 PROB40 2400/2406 BKN004 BECMG 2406/2408 SCT030